sensor_id;sensor_type;location;lat;lon;timestamp;pressure;altitude;pressure_sealevel;temperature;humidity
33625;BME280;19962;47.820;1.930;2023-04-29T00:00:57;100514.81;;;18.44;83.26
33625;BME280;19962;47.820;1.930;2023-04-29T00:03:24;100510.94;;;18.45;83.25
33625;BME280;19962;47.820;1.930;2023-04-29T00:05:53;100509.31;;;18.34;83.72
33625;BME280;19962;47.820;1.930;2023-04-29T00:08:19;100517.63;;;18.29;83.61
33625;BME280;19962;47.820;1.930;2023-04-29T00:10:46;100517.34;;;18.31;84.08
33625;BME280;19962;47.820;1.930;2023-04-29T00:13:12;100509.84;;;18.31;83.34
33625;BME280;19962;47.820;1.930;2023-04-29T00:15:39;100511.28;;;18.34;83.70
33625;BME280;19962;47.820;1.930;2023-04-29T00:18:06;100503.75;;;18.34;83.78
33625;BME280;19962;47.820;1.930;2023-04-29T00:20:32;100498.53;;;17.98;84.29
33625;BME280;19962;47.820;1.930;2023-04-29T00:22:58;100485.75;;;18.12;84.39
33625;BME280;19962;47.820;1.930;2023-04-29T00:25:24;100492.38;;;18.11;83.79
33625;BME280;19962;47.820;1.930;2023-04-29T00:27:50;100498.78;;;18.11;84.23
33625;BME280;19962;47.820;1.930;2023-04-29T00:30:16;100501.56;;;18.11;84.00
33625;BME280;19962;47.820;1.930;2023-04-29T00:32:42;100498.78;;;18.11;84.06
33625;BME280;19962;47.820;1.930;2023-04-29T00:35:09;100499.34;;;17.98;84.20
33625;BME280;19962;47.820;1.930;2023-04-29T00:37:36;100503.22;;;18.07;83.78
33625;BME280;19962;47.820;1.930;2023-04-29T00:40:03;100506.03;;;17.92;83.80
33625;BME280;19962;47.820;1.930;2023-04-29T00:42:30;100508.25;;;17.90;83.99
33625;BME280;19962;47.820;1.930;2023-04-29T00:44:58;100506.31;;;17.96;84.29
33625;BME280;19962;47.820;1.930;2023-04-29T00:47:24;100507.69;;;17.98;83.99
33625;BME280;19962;47.820;1.930;2023-04-29T00:49:51;100494.63;;;18.04;83.59
33625;BME280;19962;47.820;1.930;2023-04-29T00:52:17;100499.91;;;17.95;83.74
33625;BME280;19962;47.820;1.930;2023-04-29T00:54:44;100510.72;;;18.02;84.11
33625;BME280;19962;47.820;1.930;2023-04-29T00:57:10;100509.34;;;18.09;83.48
33625;BME280;19962;47.820;1.930;2023-04-29T00:59:37;100504.09;;;17.98;83.41
33625;BME280;19962;47.820;1.930;2023-04-29T01:02:03;100501.31;;;17.88;83.45
33625;BME280;19962;47.820;1.930;2023-04-29T01:04:30;100494.94;;;17.92;83.43
33625;BME280;19962;47.820;1.930;2023-04-29T01:07:08;100502.97;;;17.84;83.25
33625;BME280;19962;47.820;1.930;2023-04-29T01:12:50;100497.72;;;17.82;84.21
33625;BME280;19962;47.820;1.930;2023-04-29T01:15:23;100498.28;;;17.84;83.07
33625;BME280;19962;47.820;1.930;2023-04-29T01:17:58;100488.81;;;17.85;83.44
33625;BME280;19962;47.820;1.930;2023-04-29T01:20:25;100496.59;;;17.83;83.26
33625;BME280;19962;47.820;1.930;2023-04-29T01:22:52;100496.63;;;17.78;83.67
33625;BME280;19962;47.820;1.930;2023-04-29T01:25:18;100498.28;;;17.69;83.79
33625;BME280;19962;47.820;1.930;2023-04-29T01:33:35;100501.59;;;17.66;83.21
33625;BME280;19962;47.820;1.930;2023-04-29T01:41:42;100492.13;;;17.32;84.04
33625;BME280;19962;47.820;1.930;2023-04-29T01:44:13;100485.78;;;17.57;83.83
33625;BME280;19962;47.820;1.930;2023-04-29T01:46:40;100491.59;;;17.40;83.19
33625;BME280;19962;47.820;1.930;2023-04-29T01:49:07;100487.97;;;17.24;83.66
33625;BME280;19962;47.820;1.930;2023-04-29T01:51:34;100499.03;;;17.14;84.59
33625;BME280;19962;47.820;1.930;2023-04-29T01:54:00;100493.44;;;16.99;85.61
33625;BME280;19962;47.820;1.930;2023-04-29T01:56:26;100487.94;;;17.14;85.50
33625;BME280;19962;47.820;1.930;2023-04-29T01:58:52;100488.22;;;17.13;84.56
33625;BME280;19962;47.820;1.930;2023-04-29T02:01:18;100493.47;;;17.04;84.62
33625;BME280;19962;47.820;1.930;2023-04-29T02:03:44;100483.72;;;16.97;85.09
33625;BME280;19962;47.820;1.930;2023-04-29T02:06:10;100481.28;;;17.00;84.63
33625;BME280;19962;47.820;1.930;2023-04-29T02:08:36;100473.75;;;16.91;84.84
33625;BME280;19962;47.820;1.930;2023-04-29T02:11:03;100478.19;;;16.87;84.38
33625;BME280;19962;47.820;1.930;2023-04-29T02:13:29;100479.50;;;16.59;85.81
33625;BME280;19962;47.820;1.930;2023-04-29T02:15:55;100481.09;;;16.50;85.99
33625;BME280;19962;47.820;1.930;2023-04-29T02:18:21;100482.28;;;16.64;86.31
33625;BME280;19962;47.820;1.930;2023-04-29T02:20:47;100477.88;;;16.73;86.07
33625;BME280;19962;47.820;1.930;2023-04-29T02:23:15;100483.44;;;16.78;85.52
33625;BME280;19962;47.820;1.930;2023-04-29T02:25:42;100481.44;;;16.69;85.32
33625;BME280;19962;47.820;1.930;2023-04-29T02:28:08;100481.19;;;16.70;85.57
33625;BME280;19962;47.820;1.930;2023-04-29T02:30:34;100489.75;;;16.64;85.81
33625;BME280;19962;47.820;1.930;2023-04-29T02:33:00;100486.44;;;16.67;85.75
33625;BME280;19962;47.820;1.930;2023-04-29T02:35:26;100492.75;;;16.57;85.29
33625;BME280;19962;47.820;1.930;2023-04-29T02:37:53;100488.06;;;16.58;85.93
33625;BME280;19962;47.820;1.930;2023-04-29T02:40:19;100494.72;;;16.62;86.11
33625;BME280;19962;47.820;1.930;2023-04-29T02:42:45;100498.94;;;16.84;85.37
33625;BME280;19962;47.820;1.930;2023-04-29T02:45:11;100493.88;;;16.61;85.47
33625;BME280;19962;47.820;1.930;2023-04-29T02:47:38;100496.94;;;16.65;85.09
33625;BME280;19962;47.820;1.930;2023-04-29T02:50:04;100509.16;;;16.69;85.48
33625;BME280;19962;47.820;1.930;2023-04-29T02:52:30;100500.88;;;16.79;84.56
33625;BME280;19962;47.820;1.930;2023-04-29T02:54:56;100501.47;;;16.86;84.56
33625;BME280;19962;47.820;1.930;2023-04-29T02:57:22;100493.72;;;16.93;83.62
33625;BME280;19962;47.820;1.930;2023-04-29T02:59:49;100505.03;;;16.81;83.91
33625;BME280;19962;47.820;1.930;2023-04-29T03:02:15;100505.81;;;16.62;84.15
33625;BME280;19962;47.820;1.930;2023-04-29T03:04:42;100509.13;;;16.64;84.03
33625;BME280;19962;47.820;1.930;2023-04-29T03:07:08;100508.00;;;16.60;84.05
33625;BME280;19962;47.820;1.930;2023-04-29T03:09:34;100508.88;;;16.65;83.66
33625;BME280;19962;47.820;1.930;2023-04-29T03:12:00;100516.94;;;16.77;83.35
33625;BME280;19962;47.820;1.930;2023-04-29T03:14:27;100514.44;;;16.80;83.40
33625;BME280;19962;47.820;1.930;2023-04-29T03:16:54;100522.25;;;16.88;83.09
33625;BME280;19962;47.820;1.930;2023-04-29T03:19:21;100520.00;;;16.90;83.13
33625;BME280;19962;47.820;1.930;2023-04-29T03:21:47;100527.19;;;16.81;83.08
33625;BME280;19962;47.820;1.930;2023-04-29T03:24:13;100527.72;;;16.68;83.41
33625;BME280;19962;47.820;1.930;2023-04-29T03:26:40;100531.91;;;16.81;83.54
33625;BME280;19962;47.820;1.930;2023-04-29T03:29:07;100534.72;;;16.91;83.34
33625;BME280;19962;47.820;1.930;2023-04-29T03:31:34;100540.28;;;16.96;83.05
33625;BME280;19962;47.820;1.930;2023-04-29T03:34:00;100543.50;;;16.68;82.78
33625;BME280;19962;47.820;1.930;2023-04-29T03:36:26;100547.25;;;16.47;83.02
33625;BME280;19962;47.820;1.930;2023-04-29T03:38:52;100546.88;;;16.33;83.65
33625;BME280;19962;47.820;1.930;2023-04-29T03:41:19;100557.41;;;16.36;83.58
33625;BME280;19962;47.820;1.930;2023-04-29T03:43:45;100557.47;;;16.41;83.19
33625;BME280;19962;47.820;1.930;2023-04-29T03:46:11;100558.38;;;16.57;82.64
33625;BME280;19962;47.820;1.930;2023-04-29T03:48:37;100563.78;;;16.37;82.65
33625;BME280;19962;47.820;1.930;2023-04-29T03:51:04;100565.63;;;16.21;83.71
33625;BME280;19962;47.820;1.930;2023-04-29T03:53:30;100562.59;;;16.23;83.03
33625;BME280;19962;47.820;1.930;2023-04-29T03:55:57;100561.06;;;16.05;83.30
33625;BME280;19962;47.820;1.930;2023-04-29T03:58:24;100566.94;;;16.09;83.79
33625;BME280;19962;47.820;1.930;2023-04-29T04:00:50;100565.78;;;16.05;83.51
33625;BME280;19962;47.820;1.930;2023-04-29T04:03:16;100577.66;;;16.00;83.90
33625;BME280;19962;47.820;1.930;2023-04-29T04:05:42;100578.00;;;16.09;83.44
33625;BME280;19962;47.820;1.930;2023-04-29T04:08:08;100573.06;;;16.16;83.49
33625;BME280;19962;47.820;1.930;2023-04-29T04:10:35;100577.22;;;16.18;83.07
33625;BME280;19962;47.820;1.930;2023-04-29T04:13:01;100571.41;;;16.15;83.42
33625;BME280;19962;47.820;1.930;2023-04-29T04:15:27;100573.41;;;16.24;82.60
33625;BME280;19962;47.820;1.930;2023-04-29T04:17:53;100570.56;;;16.14;82.75
33625;BME280;19962;47.820;1.930;2023-04-29T04:20:19;100571.94;;;16.17;82.69
33625;BME280;19962;47.820;1.930;2023-04-29T04:22:45;100578.38;;;15.86;83.42
33625;BME280;19962;47.820;1.930;2023-04-29T04:25:11;100576.78;;;15.95;83.80
33625;BME280;19962;47.820;1.930;2023-04-29T04:27:38;100578.81;;;15.73;83.92
33625;BME280;19962;47.820;1.930;2023-04-29T04:30:04;100581.16;;;15.86;83.84
33625;BME280;19962;47.820;1.930;2023-04-29T04:32:30;100575.66;;;15.91;82.94
33625;BME280;19962;47.820;1.930;2023-04-29T04:34:56;100578.69;;;15.89;82.71
33625;BME280;19962;47.820;1.930;2023-04-29T04:37:23;100581.28;;;15.74;83.48
33625;BME280;19962;47.820;1.930;2023-04-29T04:39:49;100580.41;;;15.64;83.62
33625;BME280;19962;47.820;1.930;2023-04-29T04:42:15;100581.38;;;15.79;83.48
33625;BME280;19962;47.820;1.930;2023-04-29T04:44:41;100579.41;;;15.80;83.89
33625;BME280;19962;47.820;1.930;2023-04-29T04:47:07;100591.63;;;15.84;83.50
33625;BME280;19962;47.820;1.930;2023-04-29T04:49:35;100591.25;;;15.70;83.69
33625;BME280;19962;47.820;1.930;2023-04-29T04:52:01;100596.56;;;15.50;84.60
33625;BME280;19962;47.820;1.930;2023-04-29T04:54:27;100597.03;;;15.69;84.40
33625;BME280;19962;47.820;1.930;2023-04-29T04:56:53;100600.94;;;15.73;83.52
33625;BME280;19962;47.820;1.930;2023-04-29T04:59:19;100611.38;;;15.66;83.91
33625;BME280;19962;47.820;1.930;2023-04-29T05:01:45;100605.84;;;15.66;84.40
33625;BME280;19962;47.820;1.930;2023-04-29T05:04:11;100605.59;;;15.67;84.07
33625;BME280;19962;47.820;1.930;2023-04-29T05:06:38;100606.34;;;15.63;84.28
33625;BME280;19962;47.820;1.930;2023-04-29T05:09:04;100609.63;;;15.55;84.43
33625;BME280;19962;47.820;1.930;2023-04-29T05:11:30;100611.19;;;15.46;85.03
33625;BME280;19962;47.820;1.930;2023-04-29T05:13:56;100601.38;;;15.60;84.32
33625;BME280;19962;47.820;1.930;2023-04-29T05:16:22;100600.88;;;15.68;84.20
33625;BME280;19962;47.820;1.930;2023-04-29T05:18:48;100605.00;;;15.65;84.13
33625;BME280;19962;47.820;1.930;2023-04-29T05:21:14;100607.50;;;15.67;83.96
33625;BME280;19962;47.820;1.930;2023-04-29T05:23:40;100607.50;;;15.67;83.73
33625;BME280;19962;47.820;1.930;2023-04-29T05:26:08;100602.09;;;15.50;84.81
33625;BME280;19962;47.820;1.930;2023-04-29T05:28:34;100607.13;;;15.53;85.00
33625;BME280;19962;47.820;1.930;2023-04-29T05:31:00;100612.38;;;15.55;85.09
33625;BME280;19962;47.820;1.930;2023-04-29T05:33:26;100617.16;;;15.64;84.63
33625;BME280;19962;47.820;1.930;2023-04-29T05:35:52;100624.09;;;15.67;84.74
33625;BME280;19962;47.820;1.930;2023-04-29T05:38:19;100620.88;;;15.75;84.10
33625;BME280;19962;47.820;1.930;2023-04-29T05:40:45;100625.00;;;15.72;84.54
33625;BME280;19962;47.820;1.930;2023-04-29T05:43:11;100629.06;;;15.65;84.45
33625;BME280;19962;47.820;1.930;2023-04-29T05:45:37;100622.34;;;15.56;85.03
33625;BME280;19962;47.820;1.930;2023-04-29T05:48:03;100629.13;;;15.70;84.17
33625;BME280;19962;47.820;1.930;2023-04-29T05:50:29;100627.88;;;15.56;84.49
33625;BME280;19962;47.820;1.930;2023-04-29T05:52:56;100627.53;;;15.79;84.53
33625;BME280;19962;47.820;1.930;2023-04-29T05:55:22;100632.44;;;15.72;84.56
33625;BME280;19962;47.820;1.930;2023-04-29T05:57:48;100631.47;;;15.83;84.23
33625;BME280;19962;47.820;1.930;2023-04-29T06:00:14;100636.41;;;15.81;83.87
33625;BME280;19962;47.820;1.930;2023-04-29T06:02:41;100634.81;;;15.90;83.55
33625;BME280;19962;47.820;1.930;2023-04-29T06:05:08;100651.63;;;16.10;82.81
33625;BME280;19962;47.820;1.930;2023-04-29T06:07:35;100639.38;;;16.01;83.30
33625;BME280;19962;47.820;1.930;2023-04-29T06:10:01;100645.91;;;15.90;83.53
33625;BME280;19962;47.820;1.930;2023-04-29T06:12:27;100645.47;;;16.03;83.56
33625;BME280;19962;47.820;1.930;2023-04-29T06:14:54;100651.47;;;16.26;82.55
33625;BME280;19962;47.820;1.930;2023-04-29T06:17:20;100663.75;;;16.04;82.81
33625;BME280;19962;47.820;1.930;2023-04-29T06:19:46;100667.34;;;16.04;83.22
33625;BME280;19962;47.820;1.930;2023-04-29T06:22:12;100669.72;;;16.22;82.56
33625;BME280;19962;47.820;1.930;2023-04-29T06:24:38;100667.00;;;15.96;83.61
33625;BME280;19962;47.820;1.930;2023-04-29T06:27:04;100671.25;;;16.08;83.32
33625;BME280;19962;47.820;1.930;2023-04-29T06:29:30;100673.16;;;16.34;82.79
33625;BME280;19962;47.820;1.930;2023-04-29T06:31:57;100675.06;;;16.34;82.22
33625;BME280;19962;47.820;1.930;2023-04-29T06:34:23;100670.53;;;16.18;82.44
33625;BME280;19962;47.820;1.930;2023-04-29T06:36:49;100676.34;;;16.21;82.30
33625;BME280;19962;47.820;1.930;2023-04-29T06:39:15;100679.31;;;16.41;82.05
33625;BME280;19962;47.820;1.930;2023-04-29T06:41:41;100680.00;;;16.58;81.25
33625;BME280;19962;47.820;1.930;2023-04-29T06:44:07;100676.94;;;16.55;80.79
33625;BME280;19962;47.820;1.930;2023-04-29T06:46:34;100680.81;;;16.54;80.59
33625;BME280;19962;47.820;1.930;2023-04-29T06:49:00;100683.56;;;16.54;80.69
33625;BME280;19962;47.820;1.930;2023-04-29T06:51:26;100687.03;;;16.71;80.48
33625;BME280;19962;47.820;1.930;2023-04-29T06:53:53;100679.66;;;16.91;79.88
33625;BME280;19962;47.820;1.930;2023-04-29T06:56:20;100685.94;;;16.77;79.52
33625;BME280;19962;47.820;1.930;2023-04-29T06:58:46;100686.28;;;16.44;80.56
33625;BME280;19962;47.820;1.930;2023-04-29T07:01:12;100693.00;;;16.53;80.93
33625;BME280;19962;47.820;1.930;2023-04-29T07:03:38;100696.03;;;16.51;80.74
33625;BME280;19962;47.820;1.930;2023-04-29T07:06:04;100703.03;;;16.64;80.92
33625;BME280;19962;47.820;1.930;2023-04-29T07:08:31;100706.09;;;16.67;80.22
33625;BME280;19962;47.820;1.930;2023-04-29T07:10:58;100707.59;;;16.80;80.19
33625;BME280;19962;47.820;1.930;2023-04-29T07:13:24;100710.97;;;16.92;79.77
33625;BME280;19962;47.820;1.930;2023-04-29T07:15:50;100707.16;;;17.03;79.37
33625;BME280;19962;47.820;1.930;2023-04-29T07:18:17;100714.13;;;17.10;78.85
33625;BME280;19962;47.820;1.930;2023-04-29T07:20:43;100712.75;;;17.08;78.78
33625;BME280;19962;47.820;1.930;2023-04-29T07:23:10;100714.06;;;16.95;79.32
33625;BME280;19962;47.820;1.930;2023-04-29T07:25:36;100718.34;;;16.76;80.11
33625;BME280;19962;47.820;1.930;2023-04-29T07:28:02;100710.72;;;16.93;79.73
33625;BME280;19962;47.820;1.930;2023-04-29T07:30:29;100723.56;;;17.09;79.05
33625;BME280;19962;47.820;1.930;2023-04-29T07:32:55;100715.59;;;17.23;78.69
33625;BME280;19962;47.820;1.930;2023-04-29T07:35:21;100720.09;;;17.34;78.24
33625;BME280;19962;47.820;1.930;2023-04-29T07:37:47;100728.44;;;17.39;77.25
33625;BME280;19962;47.820;1.930;2023-04-29T07:40:14;100724.25;;;17.36;77.31
33625;BME280;19962;47.820;1.930;2023-04-29T07:42:40;100732.22;;;17.23;77.81
33625;BME280;19962;47.820;1.930;2023-04-29T07:45:06;100743.75;;;17.05;78.30
33625;BME280;19962;47.820;1.930;2023-04-29T07:47:33;100729.94;;;17.15;78.48
33625;BME280;19962;47.820;1.930;2023-04-29T07:49:59;100733.38;;;17.32;78.00
33625;BME280;19962;47.820;1.930;2023-04-29T07:52:25;100731.19;;;17.34;77.44
33625;BME280;19962;47.820;1.930;2023-04-29T07:54:51;100736.13;;;17.27;77.93
33625;BME280;19962;47.820;1.930;2023-04-29T07:57:20;100732.25;;;17.28;77.82
33625;BME280;19962;47.820;1.930;2023-04-29T07:59:50;100738.34;;;17.25;78.04
33625;BME280;19962;47.820;1.930;2023-04-29T08:02:17;100739.06;;;17.05;78.79
33625;BME280;19962;47.820;1.930;2023-04-29T08:04:43;100746.03;;;17.13;78.40
33625;BME280;19962;47.820;1.930;2023-04-29T08:07:09;100739.97;;;17.16;78.41
33625;BME280;19962;47.820;1.930;2023-04-29T08:09:35;100739.41;;;17.19;78.26
33625;BME280;19962;47.820;1.930;2023-04-29T08:12:01;100731.84;;;17.51;77.35
33625;BME280;19962;47.820;1.930;2023-04-29T08:14:27;100741.28;;;17.55;77.25
33625;BME280;19962;47.820;1.930;2023-04-29T08:16:54;100741.25;;;17.50;77.23
33625;BME280;19962;47.820;1.930;2023-04-29T08:19:20;100744.94;;;17.71;76.73
33625;BME280;19962;47.820;1.930;2023-04-29T08:21:47;100742.16;;;17.71;76.25
33625;BME280;19962;47.820;1.930;2023-04-29T08:24:13;100744.38;;;17.69;76.65
33625;BME280;19962;47.820;1.930;2023-04-29T08:26:42;100754.34;;;17.65;76.86
33625;BME280;19962;47.820;1.930;2023-04-29T08:29:08;100753.63;;;17.32;77.58
33625;BME280;19962;47.820;1.930;2023-04-29T08:31:34;100744.88;;;17.56;77.34
33625;BME280;19962;47.820;1.930;2023-04-29T08:34:00;100741.81;;;17.47;77.21
33625;BME280;19962;47.820;1.930;2023-04-29T08:36:27;100746.00;;;17.50;77.36
33625;BME280;19962;47.820;1.930;2023-04-29T08:38:54;100745.78;;;17.66;76.94
33625;BME280;19962;47.820;1.930;2023-04-29T08:41:20;100742.69;;;17.58;76.76
33625;BME280;19962;47.820;1.930;2023-04-29T08:43:47;100744.03;;;17.55;76.89
33625;BME280;19962;47.820;1.930;2023-04-29T08:46:13;100739.59;;;17.54;76.95
33625;BME280;19962;47.820;1.930;2023-04-29T08:48:39;100741.78;;;17.42;76.92
33625;BME280;19962;47.820;1.930;2023-04-29T08:51:06;100748.53;;;17.61;76.91
33625;BME280;19962;47.820;1.930;2023-04-29T08:53:32;100746.63;;;17.67;76.86
33625;BME280;19962;47.820;1.930;2023-04-29T08:56:07;100735.84;;;17.90;76.14
33625;BME280;19962;47.820;1.930;2023-04-29T08:58:35;100736.34;;;17.77;76.37
33625;BME280;19962;47.820;1.930;2023-04-29T09:01:09;100739.22;;;18.02;74.92
33625;BME280;19962;47.820;1.930;2023-04-29T09:03:49;100738.88;;;17.89;75.67
33625;BME280;19962;47.820;1.930;2023-04-29T09:06:19;100726.44;;;18.11;75.35
33625;BME280;19962;47.820;1.930;2023-04-29T09:08:46;100720.97;;;18.41;74.65
33625;BME280;19962;47.820;1.930;2023-04-29T09:11:12;100729.50;;;18.10;75.11
33625;BME280;19962;47.820;1.930;2023-04-29T09:13:39;100724.00;;;18.25;75.12
33625;BME280;19962;47.820;1.930;2023-04-29T09:16:10;100722.34;;;18.39;74.09
33625;BME280;19962;47.820;1.930;2023-04-29T09:18:48;100729.28;;;18.56;73.69
33625;BME280;19962;47.820;1.930;2023-04-29T09:21:18;100726.50;;;18.56;73.64
33625;BME280;19962;47.820;1.930;2023-04-29T09:23:46;100730.34;;;18.30;74.31
33625;BME280;19962;47.820;1.930;2023-04-29T09:26:13;100734.59;;;18.53;74.21
33625;BME280;19962;47.820;1.930;2023-04-29T09:28:39;100727.91;;;18.74;73.12
33625;BME280;19962;47.820;1.930;2023-04-29T09:31:08;100727.91;;;18.79;72.85
33625;BME280;19962;47.820;1.930;2023-04-29T09:33:52;100741.81;;;18.79;72.77
33625;BME280;19962;47.820;1.930;2023-04-29T09:36:45;100739.25;;;18.92;72.63
33625;BME280;19962;47.820;1.930;2023-04-29T09:44:18;100738.19;;;18.58;73.25
33625;BME280;19962;47.820;1.930;2023-04-29T09:46:55;100730.41;;;18.40;73.79
33625;BME280;19962;47.820;1.930;2023-04-29T09:49:26;100737.34;;;18.58;73.55
33625;BME280;19962;47.820;1.930;2023-04-29T09:51:57;100733.72;;;18.82;72.93
33625;BME280;19962;47.820;1.930;2023-04-29T09:54:25;100738.16;;;18.98;72.39
33625;BME280;19962;47.820;1.930;2023-04-29T09:56:53;100734.25;;;19.04;72.01
33625;BME280;19962;47.820;1.930;2023-04-29T09:59:20;100731.78;;;18.68;72.56
33625;BME280;19962;47.820;1.930;2023-04-29T10:01:51;100737.63;;;18.81;72.55
33625;BME280;19962;47.820;1.930;2023-04-29T10:04:19;100747.59;;;18.92;71.78
33625;BME280;19962;47.820;1.930;2023-04-29T10:06:49;100738.97;;;18.99;72.45
33625;BME280;19962;47.820;1.930;2023-04-29T10:09:17;100744.81;;;18.97;72.10
33625;BME280;19962;47.820;1.930;2023-04-29T10:11:48;100752.56;;;19.10;71.94
33625;BME280;19962;47.820;1.930;2023-04-29T10:14:24;100744.25;;;19.00;71.82
33625;BME280;19962;47.820;1.930;2023-04-29T10:17:01;100748.75;;;18.86;72.20
33625;BME280;19962;47.820;1.930;2023-04-29T10:22:15;100746.22;;;18.60;72.99
33625;BME280;19962;47.820;1.930;2023-04-29T10:24:45;100755.97;;;18.82;72.75
33625;BME280;19962;47.820;1.930;2023-04-29T10:27:12;100749.00;;;18.85;72.44
33625;BME280;19962;47.820;1.930;2023-04-29T10:29:40;100757.34;;;18.90;72.40
33625;BME280;19962;47.820;1.930;2023-04-29T10:32:09;100762.66;;;18.76;72.54
33625;BME280;19962;47.820;1.930;2023-04-29T10:34:38;100749.03;;;18.70;72.58
33625;BME280;19962;47.820;1.930;2023-04-29T10:37:12;100751.78;;;18.90;72.20
33625;BME280;19962;47.820;1.930;2023-04-29T10:42:42;100751.47;;;19.01;71.05
33625;BME280;19962;47.820;1.930;2023-04-29T10:45:18;100757.03;;;19.06;71.37
33625;BME280;19962;47.820;1.930;2023-04-29T10:53:14;100745.91;;;19.21;71.02
33625;BME280;19962;47.820;1.930;2023-04-29T10:55:41;100753.09;;;19.37;70.28
33625;BME280;19962;47.820;1.930;2023-04-29T10:58:36;100750.31;;;19.47;69.51
33625;BME280;19962;47.820;1.930;2023-04-29T11:01:04;100747.78;;;19.51;69.55
33625;BME280;19962;47.820;1.930;2023-04-29T11:03:54;100749.66;;;19.70;68.73
33625;BME280;19962;47.820;1.930;2023-04-29T11:09:11;100747.94;;;19.79;67.90
33625;BME280;19962;47.820;1.930;2023-04-29T11:14:28;100741.16;;;19.90;67.04
33625;BME280;19962;47.820;1.930;2023-04-29T11:17:00;100735.59;;;19.90;67.22
33625;BME280;19962;47.820;1.930;2023-04-29T11:19:31;100739.09;;;19.62;67.58
33625;BME280;19962;47.820;1.930;2023-04-29T11:24:49;100737.47;;;20.10;66.85
33625;BME280;19962;47.820;1.930;2023-04-29T11:27:17;100739.66;;;20.18;66.89
33625;BME280;19962;47.820;1.930;2023-04-29T11:29:45;100731.63;;;20.06;67.05
33625;BME280;19962;47.820;1.930;2023-04-29T11:32:14;100734.41;;;20.11;67.04
33625;BME280;19962;47.820;1.930;2023-04-29T11:34:40;100742.09;;;19.81;67.20
33625;BME280;19962;47.820;1.930;2023-04-29T11:37:07;100743.78;;;19.67;68.07
33625;BME280;19962;47.820;1.930;2023-04-29T11:39:36;100740.53;;;19.55;68.72
33625;BME280;19962;47.820;1.930;2023-04-29T11:42:06;100740.19;;;19.66;68.43
33625;BME280;19962;47.820;1.930;2023-04-29T11:44:35;100741.44;;;19.15;69.95
33625;BME280;19962;47.820;1.930;2023-04-29T11:47:06;100738.09;;;19.18;70.04
33625;BME280;19962;47.820;1.930;2023-04-29T11:49:33;100739.16;;;19.42;69.66
33625;BME280;19962;47.820;1.930;2023-04-29T11:51:59;100738.84;;;19.49;69.60
33625;BME280;19962;47.820;1.930;2023-04-29T11:54:27;100736.84;;;19.64;68.88
33625;BME280;19962;47.820;1.930;2023-04-29T11:56:54;100735.19;;;19.63;68.67
33625;BME280;19962;47.820;1.930;2023-04-29T11:59:21;100739.38;;;19.61;68.49
33625;BME280;19962;47.820;1.930;2023-04-29T12:01:48;100740.09;;;19.81;68.46
33625;BME280;19962;47.820;1.930;2023-04-29T12:04:14;100749.06;;;19.78;68.65
33625;BME280;19962;47.820;1.930;2023-04-29T12:06:41;100744.56;;;19.87;68.22
33625;BME280;19962;47.820;1.930;2023-04-29T12:09:07;100744.34;;;19.74;67.99
33625;BME280;19962;47.820;1.930;2023-04-29T12:11:35;100741.31;;;19.65;67.65
33625;BME280;19962;47.820;1.930;2023-04-29T12:14:01;100742.91;;;19.81;67.95
33625;BME280;19962;47.820;1.930;2023-04-29T12:16:31;100743.66;;;19.97;67.62
33625;BME280;19962;47.820;1.930;2023-04-29T12:18:58;100738.31;;;20.05;67.70
33625;BME280;19962;47.820;1.930;2023-04-29T12:21:25;100745.19;;;19.64;68.54
33625;BME280;19962;47.820;1.930;2023-04-29T12:23:58;100749.22;;;19.28;69.61
33625;BME280;19962;47.820;1.930;2023-04-29T12:26:27;100757.03;;;19.26;69.79
33625;BME280;19962;47.820;1.930;2023-04-29T12:28:56;100754.75;;;19.43;69.66
33625;BME280;19962;47.820;1.930;2023-04-29T12:31:31;100760.84;;;19.60;69.33
33625;BME280;19962;47.820;1.930;2023-04-29T12:33:58;100764.72;;;19.54;69.09
33625;BME280;19962;47.820;1.930;2023-04-29T12:36:24;100754.75;;;19.48;68.92
33625;BME280;19962;47.820;1.930;2023-04-29T12:38:50;100764.44;;;19.56;68.92
33625;BME280;19962;47.820;1.930;2023-04-29T12:41:19;100762.81;;;19.50;69.32
33625;BME280;19962;47.820;1.930;2023-04-29T12:43:46;100761.38;;;19.62;68.63
33625;BME280;19962;47.820;1.930;2023-04-29T12:46:14;100761.41;;;19.52;68.20
33625;BME280;19962;47.820;1.930;2023-04-29T12:48:41;100760.91;;;19.35;68.88
33625;BME280;19962;47.820;1.930;2023-04-29T12:51:12;100773.19;;;19.29;69.34
33625;BME280;19962;47.820;1.930;2023-04-29T12:53:38;100780.41;;;19.30;69.24
33625;BME280;19962;47.820;1.930;2023-04-29T12:56:05;100765.31;;;19.46;68.77
33625;BME280;19962;47.820;1.930;2023-04-29T12:58:32;100770.38;;;19.34;68.58
33625;BME280;19962;47.820;1.930;2023-04-29T13:00:59;100768.16;;;19.16;69.30
33625;BME280;19962;47.820;1.930;2023-04-29T13:03:25;100775.09;;;19.09;69.60
33625;BME280;19962;47.820;1.930;2023-04-29T13:05:52;100762.56;;;19.36;68.98
33625;BME280;19962;47.820;1.930;2023-04-29T13:08:20;100769.19;;;19.60;68.49
33625;BME280;19962;47.820;1.930;2023-04-29T13:10:46;100760.22;;;19.68;68.27
33625;BME280;19962;47.820;1.930;2023-04-29T13:13:12;100760.22;;;19.68;68.04
33625;BME280;19962;47.820;1.930;2023-04-29T13:15:38;100757.91;;;19.85;67.74
33625;BME280;19962;47.820;1.930;2023-04-29T13:18:05;100757.63;;;19.87;67.63
33625;BME280;19962;47.820;1.930;2023-04-29T13:20:31;100753.50;;;19.79;67.58
33625;BME280;19962;47.820;1.930;2023-04-29T13:22:58;100757.63;;;19.87;67.59
33625;BME280;19962;47.820;1.930;2023-04-29T13:25:24;100750.97;;;19.83;67.89
33625;BME280;19962;47.820;1.930;2023-04-29T13:27:50;100759.09;;;19.74;68.00
33625;BME280;19962;47.820;1.930;2023-04-29T13:30:16;100744.59;;;19.72;67.94